Have a Safe July 4th! 

Flight Track Log - Related Links

Times and Time Zones

All times are in EDT time to prevent confusion due to time zone crossing. See the ZK-OKO flight status page for this flight to view local times or setup timezone preferences in your user account.

Time Position Orientation Groundspeed Altitude Reporting Facility
EDT Latitude Longitude Course Direction KTS MPH feet Rate Location/Type
Wed 11:40:06 AM 51.4646 -0.5061 269° West 192 221 900  Level FlightAware ADS-B
Wed 11:40:22 AM 51.4643 -0.5294 269° West 192 221 1,600 2,444 Climbing FlightAware ADS-B
Wed 11:40:33 AM 51.4641 -0.5450 270° West 197 227 2,000 1,615 Climbing FlightAware ADS-B
Wed 11:40:48 AM 51.4642 -0.5693 270° West 221 254 2,300 889 Climbing FlightAware ADS-B
Wed 11:41:00 AM 51.4641 -0.5903 266° West 240 276 2,400 947 Climbing FlightAware ADS-B
Wed 11:41:07 AM 51.4636 -0.6023 261° West 249 287 2,600 1,714 Climbing FlightAware ADS-B
Wed 11:41:14 AM 51.4624 -0.6149 258° West 258 297 2,800 1,636 Climbing FlightAware ADS-B
Wed 11:41:18 AM 51.4614 -0.6224 256° West 262 302 2,900 2,471 Climbing FlightAware ADS-B
Wed 11:41:31 AM 51.4576 -0.6471 258° West 269 310 3,500 2,000 Climbing FlightAware ADS-B
Wed 11:41:42 AM 51.4548 -0.6691 263° West 271 312 3,700 1,200 Climbing FlightAware ADS-B
Wed 11:41:46 AM 51.4542 -0.6768 267° West 270 311 3,800 1,500 Climbing FlightAware ADS-B
Wed 11:41:50 AM 51.4540 -0.6831 270° West 270 311 3,900 2,000 Climbing FlightAware ADS-B
Wed 11:41:55 AM 51.4540 -0.6949 274° West 270 311 4,100 2,000 Climbing FlightAware ADS-B
Wed 11:41:59 AM 51.4544 -0.7032 280° West 269 310 4,200 2,250 Climbing FlightAware ADS-B
Wed 11:42:03 AM 51.4553 -0.7113 285° West 268 308 4,400 3,429 Climbing FlightAware ADS-B
Wed 11:42:06 AM 51.4563 -0.7174 286° West 268 308 4,600 4,000 Climbing FlightAware ADS-B
Wed 11:42:09 AM 51.4574 -0.7235 288° West 267 307 4,800 2,769 Climbing FlightAware ADS-B
Wed 11:42:19 AM 51.4610 -0.7410 290° West 269 310 5,200 1,920 Climbing FlightAware ADS-B
Wed 11:42:34 AM 51.4679 -0.7713 290° West 277 319 5,600 1,161 Climbing FlightAware ADS-B
Wed 11:42:50 AM 51.4748 -0.8013 290° West 285 328 5,800 581 Climbing FlightAware ADS-B
Wed 11:43:05 AM 51.4815 -0.8310 290° West 285 328 5,900 194 Climbing FlightAware ADS-B
Wed 11:43:21 AM 51.4878 -0.8595 290° West 282 325 5,900  Level FlightAware ADS-B
Wed 11:43:37 AM 51.4949 -0.8910 290° West 282 325 5,900  Level FlightAware ADS-B
Wed 11:43:52 AM 51.5024 -0.9245 290° West 283 326 5,900 200 Level FlightAware ADS-B
Wed 11:44:07 AM 51.5091 -0.9545 290° West 285 328 6,000 1,600 Climbing FlightAware ADS-B
Wed 11:44:22 AM 51.5159 -0.9847 290° West 284 327 6,700 2,710 Climbing FlightAware ADS-B
Wed 11:44:38 AM 51.5222 -1.0129 289° West 286 329 7,400 2,625 Climbing FlightAware ADS-B
Wed 11:44:54 AM 51.5294 -1.0458 290° West 290 334 8,100 2,516 Climbing FlightAware ADS-B
Wed 11:45:09 AM 51.5362 -1.0765 289° West 296 341 8,700 2,500 Climbing FlightAware ADS-B
Wed 11:45:18 AM 51.5403 -1.0953 290° West 298 343 9,100 2,750 Climbing FlightAware ADS-B
Wed 11:45:33 AM 51.5479 -1.1298 290° West 299 344 9,800 2,049 Climbing FlightAware ADS-B
Wed 11:45:59 AM 51.5598 -1.1837 289° West 318 366 10,500 1,412 Climbing FlightAware ADS-B
Wed 11:46:24 AM 51.5726 -1.2436 287° West 349 402 11,000 1,200 Climbing FlightAware ADS-B
Wed 11:46:54 AM 51.5874 -1.3222 287° West 382 440 11,600 1,714 Climbing FlightAware ADS-B
Wed 11:47:20 AM 51.6011 -1.3944 287° West 400 460 12,600 2,464 Climbing FlightAware ADS-B
Wed 11:47:50 AM 51.6178 -1.4814 287° West 410 472 13,900 2,459 Climbing FlightAware ADS-B
Wed 11:48:21 AM 51.6353 -1.5716 287° West 422 486 15,100 2,464 Climbing FlightAware ADS-B
Wed 11:48:46 AM 51.6501 -1.6485 287° West 428 493 16,200 2,727 Climbing FlightAware ADS-B
Wed 11:49:16 AM 51.6678 -1.7410 287° West 435 501 17,600 2,600 Climbing FlightAware ADS-B
Wed 11:49:46 AM 51.6857 -1.8352 287° West 441 507 18,800 2,361 Climbing FlightAware ADS-B
Wed 11:50:17 AM 51.7045 -1.9343 287° West 450 518 20,000 2,226 Climbing FlightAware ADS-B
Wed 11:50:48 AM 51.7229 -2.0328 287° West 457 526 21,100 2,164 Climbing FlightAware ADS-B
Wed 11:51:18 AM 51.7416 -2.1329 287° West 464 534 22,200 2,200 Climbing FlightAware ADS-B
Wed 11:51:48 AM 51.7602 -2.2327 287° West 470 541 23,300 2,066 Climbing FlightAware ADS-B
Wed 11:52:19 AM 51.7793 -2.3363 287° West 476 548 24,300 1,846 Climbing FlightAware ADS-B
Wed 11:52:53 AM 51.8013 -2.4557 286° West 481 554 25,300 1,731 Climbing FlightAware ADS-B
Wed 11:53:11 AM 51.8123 -2.5182 284° West 489 563 25,800 1,543 Climbing FlightAware ADS-B
Wed 11:53:28 AM 51.8215 -2.5769 283° West 494 568 26,200 1,592 Climbing FlightAware ADS-B
Wed 11:54:00 AM 51.8380 -2.6931 282° West 500 575 27,100 1,586 Climbing FlightAware ADS-B
Wed 11:54:55 AM 51.8655 -2.8967 282° West 512 589 28,500 1,484 Climbing FlightAware ADS-B
Wed 11:55:33 AM 51.8847 -3.0416 282° West 519 597 29,400 1,705 Climbing FlightAware ADS-B
Wed 11:56:23 AM 51.9091 -3.2299 304° West 524 603 31,000 46 Climbing FlightAware ADS-B
Wed 12:04:15 PM 52.7475 -4.0886 301° West  Level FlightAware Approximate
Wed 12:05:15 PM 52.8429 -4.2241 301° West  Level FlightAware Approximate
Wed 12:06:15 PM 52.9381 -4.3601 301° West  Level FlightAware Approximate
Wed 12:07:15 PM 53.0332 -4.4967 300° West  Level FlightAware Approximate
Wed 12:08:15 PM 53.1281 -4.6340 300° West  Level FlightAware Approximate
Wed 12:09:15 PM 53.2229 -4.7719 300° West  Level FlightAware Approximate
Wed 12:10:15 PM 53.3175 -4.9103 299° West  Level FlightAware Approximate
Wed 12:11:15 PM 53.4119 -5.0494 299° West  Level FlightAware Approximate
Wed 12:12:15 PM 53.5062 -5.1891 298° West  Level FlightAware Approximate
Wed 12:13:15 PM 53.6003 -5.3295 298° West  Level FlightAware Approximate
Wed 12:14:15 PM 53.6942 -5.4704 298° West  Level FlightAware Approximate
Wed 12:15:15 PM 53.7880 -5.6120 297° West  Level FlightAware Approximate
Wed 12:16:15 PM 53.8816 -5.7542 297° West  Level FlightAware Approximate
Wed 12:17:15 PM 53.9751 -5.8970 296° West  Level FlightAware Approximate
Wed 12:18:15 PM 54.0684 -6.0406 296° West  Level FlightAware Approximate
Wed 12:19:15 PM 54.1615 -6.1847 296° West  Level FlightAware Approximate
Wed 12:20:15 PM 54.2544 -6.3295 295° West  Level FlightAware Approximate
Wed 12:21:15 PM 54.3472 -6.4749 295° West  Level FlightAware Approximate
Wed 12:22:15 PM 54.4398 -6.6210 294° West  Level FlightAware Approximate
Wed 12:23:15 PM 54.5322 -6.7678 294° West  Level FlightAware Approximate
Wed 12:24:15 PM 54.6244 -6.9152 293° West  Level FlightAware Approximate
Wed 12:25:15 PM 54.7165 -7.0633 293° West  Level FlightAware Approximate
Wed 12:26:15 PM 54.8083 -7.2121 292° West  Level FlightAware Approximate
Wed 12:27:15 PM 54.9000 -7.3615 292° West  Level FlightAware Approximate
Wed 12:28:15 PM 54.9915 -7.5117 291° West  Level FlightAware Approximate
Wed 12:29:15 PM 55.0828 -7.6625 291° West  Level FlightAware Approximate
Wed 12:30:15 PM 55.1703 -7.8204 290° West  Level FlightAware Approximate
Wed 12:31:15 PM 55.2576 -7.9790 290° West  Level FlightAware Approximate
Wed 12:32:15 PM 55.3447 -8.1383 289° West  Level FlightAware Approximate
Wed 12:33:15 PM 55.4316 -8.2983 288° West  Level FlightAware Approximate
Wed 12:34:15 PM 55.5183 -8.4589 288° West  Level FlightAware Approximate
Wed 12:35:15 PM 55.6048 -8.6203 287° West  Level FlightAware Approximate
Wed 12:36:15 PM 55.6910 -8.7824 287° West  Level FlightAware Approximate
Wed 12:37:15 PM 55.7770 -8.9453 286° West  Level FlightAware Approximate
Wed 12:38:15 PM 55.8629 -9.1088 285° West  Level FlightAware Approximate
Wed 12:39:15 PM 55.9485 -9.2731 285° West  Level FlightAware Approximate
Wed 12:40:15 PM 56.0339 -9.4381 284° West  Level FlightAware Approximate
Wed 12:41:15 PM 56.1190 -9.6038 283° West  Level FlightAware Approximate
Wed 12:42:15 PM 56.2040 -9.7703 282° West  Level FlightAware Approximate
Wed 12:43:15 PM 56.2887 -9.9375 282° West  Level FlightAware Approximate
Wed 12:44:15 PM 56.3732 -10.1054 281° West  Level FlightAware Approximate
Wed 12:45:15 PM 56.4574 -10.2741 280° West  Level FlightAware Approximate
Wed 12:46:15 PM 56.5415 -10.4436 279° West  Level FlightAware Approximate
Wed 12:47:15 PM 56.6253 -10.6138 278° West  Level FlightAware Approximate
Wed 12:48:15 PM 56.7088 -10.7847 277° West  Level FlightAware Approximate
Wed 12:49:15 PM 56.7922 -10.9564 276° West  Level FlightAware Approximate
Wed 12:50:15 PM 56.8753 -11.1289 275° West  Level FlightAware Approximate
Wed 12:51:15 PM 56.9581 -11.3021 274° West  Level FlightAware Approximate
Wed 12:52:15 PM 57.0407 -11.4761 273° West  Level FlightAware Approximate
Wed 12:53:15 PM 57.1231 -11.6509 272° West  Level FlightAware Approximate
Wed 12:54:15 PM 57.2052 -11.8265 271° West  Level FlightAware Approximate
Wed 12:55:15 PM 57.2871 -12.0028 270° West  Level FlightAware Approximate
Wed 12:56:15 PM 57.3687 -12.1799 268° West  Level FlightAware Approximate
Wed 12:57:15 PM 57.4501 -12.3579 267° West  Level FlightAware Approximate
Wed 12:58:15 PM 57.5313 -12.5366 266° West  Level FlightAware Approximate
Wed 12:59:15 PM 57.6121 -12.7161 264° West  Level FlightAware Approximate
Wed 01:00:15 PM 57.6928 -12.8964 263° West  Level FlightAware Approximate
Wed 01:01:15 PM 57.7731 -13.0775 261° West  Level FlightAware Approximate
Wed 01:02:15 PM 57.8532 -13.2594 260° West  Level FlightAware Approximate
Wed 01:03:15 PM 57.9331 -13.4422 258° West  Level FlightAware Approximate
Wed 01:04:15 PM 58.0127 -13.6257 256° West  Level FlightAware Approximate
Wed 01:05:15 PM 58.0920 -13.8101 254° West  Level FlightAware Approximate
Wed 01:06:15 PM 58.1711 -13.9952 253° West  Level FlightAware Approximate
Wed 01:07:15 PM 58.2498 -14.1812 251° West  Level FlightAware Approximate
Wed 01:08:15 PM 58.3283 -14.3681 249° West  Level FlightAware Approximate
Wed 01:09:15 PM 58.4066 -14.5557 247° West  Level FlightAware Approximate
Wed 01:10:15 PM 58.4845 -14.7442 244° Southwest  Level FlightAware Approximate
Wed 01:11:15 PM 58.5622 -14.9335 242° Southwest  Level FlightAware Approximate
Wed 01:12:15 PM 58.6396 -15.1237 240° Southwest  Level FlightAware Approximate
Wed 01:13:15 PM 58.7168 -15.3147 237° Southwest  Level FlightAware Approximate
Wed 01:14:00 PM 57.0000 -20.0000 285° West 491 565 33,000  Level ETMS Enhanced Traffic Management System
Wed 02:08:43 PM 58.0000 -30.0000 296° West 441 507 33,000  Level ETMS Enhanced Traffic Management System
Wed 02:23:13 PM 59.3167 -35.9167 292° West 460 529 33,000  Level Gander Center
Wed 02:24:13 PM 59.3667 -36.1667 296° West 460 529 33,000  Level Gander Center
Wed 02:25:13 PM 59.4167 -36.3667 285° West 460 529 33,000  Level Gander Center
Wed 02:26:13 PM 59.4500 -36.6167 293° West 460 529 33,000  Level Gander Center
Wed 02:27:13 PM 59.5000 -36.8500 287° West 460 529 33,000  Level Gander Center
Wed 02:28:13 PM 59.5333 -37.0667 292° West 460 529 33,000  Level Gander Center
Wed 02:29:13 PM 59.5833 -37.3167 285° West 460 529 33,000  Level Gander Center
Wed 02:30:13 PM 59.6167 -37.5667 287° West 460 529 33,000  Level Gander Center
Wed 02:31:13 PM 59.6500 -37.7833 292° West 460 529 33,000  Level Gander Center
Wed 02:32:13 PM 59.7000 -38.0333 287° West 450 518 33,000  Level Gander Center
Wed 02:33:13 PM 59.7333 -38.2500 293° West 450 518 33,000  Level Gander Center
Wed 02:34:13 PM 59.7833 -38.4833 287° West 450 518 33,000  Level Gander Center
Wed 02:35:13 PM 59.8167 -38.7000 285° West 450 518 33,000  Level Gander Center
Wed 02:36:13 PM 59.8500 -38.9500 295° West 450 518 33,000  Level Gander Center
Wed 02:37:13 PM 59.9000 -39.1667 285° West 450 518 33,000  Level Gander Center
Wed 02:38:13 PM 59.9333 -39.4167 287° West 450 518 33,000  Level Gander Center
Wed 02:39:13 PM 59.9667 -39.6333 288° West 450 518 33,000  Level Gander Center
Wed 02:40:33 PM 60.0167 -39.9500 304° West 450 518 33,000  Level Gander Center
Wed 02:41:13 PM 60.0667 -40.1000 295° West 450 518 33,000  Level Gander Center
Wed 02:42:13 PM 60.1167 -40.3167 293° West 450 518 33,000  Level Gander Center
Wed 02:43:13 PM 60.1667 -40.5500 295° West 450 518 33,000  Level Gander Center
Wed 02:44:13 PM 60.2167 -40.7667 293° West 450 518 33,000  Level Gander Center
Wed 02:45:13 PM 60.2667 -41.0000 302° West 450 518 33,000  Level Gander Center
Wed 02:46:13 PM 60.3333 -41.2167 295° West 450 518 33,000  Level Gander Center
Wed 02:47:13 PM 60.3833 -41.4333 294° West 450 518 33,000  Level Gander Center
Wed 02:48:13 PM 60.4333 -41.6667 295° West 450 518 33,000  Level Gander Center
Wed 02:49:13 PM 60.4833 -41.8833 292° West 450 518 33,000  Level Gander Center
Wed 02:50:13 PM 60.5333 -42.1333 295° West 450 518 33,000  Level Gander Center
Wed 02:51:13 PM 60.5833 -42.3500 299° West 450 518 33,000  Level Gander Center
Wed 02:52:13 PM 60.6500 -42.6000 295° West 450 518 33,000  Level Gander Center
Wed 02:53:13 PM 60.7000 -42.8167 295° West 450 518 33,000  Level Gander Center
Wed 02:54:13 PM 60.7500 -43.0333 292° West 450 518 33,000  Level Gander Center
Wed 02:55:13 PM 60.8000 -43.2833 295° West 450 518 33,000  Level Gander Center
Wed 02:56:13 PM 60.8500 -43.5000 288° West 440 506 33,000  Level Gander Center
Wed 02:57:13 PM 60.8833 -43.7167 299° West 440 506 33,000  Level Gander Center
Wed 02:58:33 PM 60.9667 -44.0333 288° West 440 506 33,000  Level Gander Center
Wed 02:59:33 PM 61.0000 -44.2500 291° West 440 506 33,000  Level Gander Center
Wed 03:00:33 PM 61.0500 -44.5167 296° West 440 506 33,000  Level Gander Center
Wed 03:01:33 PM 61.1000 -44.7333 287° West 440 506 33,000  Level Gander Center
Wed 03:02:33 PM 61.1333 -44.9667 296° West 450 518 33,000  Level Gander Center
Wed 03:03:33 PM 61.1833 -45.1833 299° West 450 518 33,000  Level Gander Center
Wed 03:04:33 PM 61.2500 -45.4333 287° West 450 518 33,000  Level Gander Center
Wed 03:05:33 PM 61.2833 -45.6667 296° West 450 518 33,000  Level Gander Center
Wed 03:06:33 PM 61.3333 -45.8833 291° West 450 518 33,000  Level Gander Center
Wed 03:07:33 PM 61.3833 -46.1500 287° West 450 518 33,000  Level Gander Center
Wed 03:08:33 PM 61.4167 -46.3833 288° West 450 518 33,000  Level Gander Center
Wed 03:09:33 PM 61.4500 -46.6000 292° West 450 518 33,000  Level Gander Center
Wed 03:10:33 PM 61.5000 -46.8667 294° West 450 518 33,000  Level Gander Center
Wed 03:11:33 PM 61.5500 -47.1000 293° West 450 518 33,000  Level Gander Center
Wed 03:12:33 PM 61.6000 -47.3500 292° West 450 518 33,000  Level Gander Center
Wed 03:13:33 PM 61.6500 -47.6167 270° West 450 518 33,000  Level Gander Center
Wed 03:14:14 PM 61.6500 -47.7500 298° West 450 518 33,000  Level Gander Center
Wed 03:15:14 PM 61.7167 -48.0167 287° West 450 518 33,000  Level Gander Center
Wed 03:16:14 PM 61.7500 -48.2500 292° West 450 518 33,000  Level Gander Center
Wed 03:17:14 PM 61.8000 -48.5167 287° West 460 529 33,000  Level Gander Center
Wed 03:18:14 PM 61.8333 -48.7500 285° West 470 541 33,000  Level Gander Center
Wed 03:19:14 PM 61.8667 -49.0167 291° West 470 541 33,000  Level Gander Center
Wed 03:20:14 PM 61.9167 -49.3000 293° West 470 541 33,000  Level Gander Center
Wed 03:21:14 PM 61.9667 -49.5500 284° West 480 552 33,000  Level Gander Center
Wed 03:22:14 PM 62.0000 -49.8333 292° West 480 552 33,000  Level Gander Center
Wed 03:23:14 PM 62.0500 -50.1000 285° West 480 552 33,000  Level Gander Center
Wed 03:24:14 PM 62.0833 -50.3667 284° West 480 552 33,000  Level Gander Center
Wed 03:25:14 PM 62.1167 -50.6500 285° West 480 552 33,000  Level Gander Center
Wed 03:26:14 PM 62.1500 -50.9167 291° West 480 552 33,000  Level Gander Center
Wed 03:27:14 PM 62.2000 -51.2000 285° West 480 552 33,000  Level Gander Center
Wed 03:28:14 PM 62.2333 -51.4667 284° West 480 552 33,000  Level Gander Center
Wed 03:29:14 PM 62.2667 -51.7500 284° West 480 552 33,000  Level Gander Center
Wed 03:30:14 PM 62.3000 -52.0333 285° West 490 564 33,000  Level Gander Center
Wed 03:31:14 PM 62.3333 -52.3000 284° West 490 564 33,000  Level Gander Center
Wed 03:32:14 PM 62.3667 -52.5833 284° West 490 564 33,000  Level Gander Center
Wed 03:33:14 PM 62.4000 -52.8667 285° West 490 564 33,000  Level Gander Center
Wed 03:34:14 PM 62.4333 -53.1333 284° West 490 564 33,000  Level Gander Center
Wed 03:35:14 PM 62.4667 -53.4167 284° West 490 564 33,000  Level Gander Center
Wed 03:36:14 PM 62.5000 -53.7000 277° West 490 564 33,000  Level Gander Center
Wed 03:37:14 PM 62.5167 -53.9833 284° West 490 564 33,000  Level Gander Center
Wed 03:38:13 PM 62.5500 -54.2667 284° West 490 564 33,000  Level Gander Center
Wed 03:39:13 PM 62.5833 -54.5500 284° West 490 564 33,000  Level Gander Center
Wed 03:40:14 PM 62.6167 -54.8333 284° West 490 564 33,000  Level Gander Center
Wed 03:41:13 PM 62.6500 -55.1167 277° West 490 564 33,000  Level Gander Center
Wed 03:42:14 PM 62.6667 -55.4333 277° West 490 564 33,000  Level Gander Center
Wed 03:43:13 PM 62.6833 -55.7167 285° West 490 564 33,000  Level Gander Center
Wed 03:44:13 PM 62.7167 -56.0000 277° West 490 564 33,000  Level Gander Center
Wed 03:45:14 PM 62.7333 -56.2833 284° West 480 552 33,000  Level Gander Center
Wed 03:46:13 PM 62.7667 -56.5833 283° West 480 552 33,000  Level Gander Center
Wed 03:47:34 PM 62.8000 -56.9000 278° West 470 541 33,000  Level Montreal Center
Wed 03:48:34 PM 62.8167 -57.1500 285° West 480 552 33,000  Level Montreal Center
Wed 03:49:34 PM 62.8500 -57.4333 277° West 480 552 33,000  Level Montreal Center
Wed 03:50:34 PM 62.8667 -57.7333 278° West 480 552 33,000  Level Montreal Center
Wed 03:51:14 PM 62.8833 -57.9833 277° West 480 552 33,000  Level Gander Center
Wed 03:52:14 PM 62.9000 -58.2667 285° West 480 552 33,000  Level Gander Center
Wed 03:53:14 PM 62.9333 -58.5500 277° West 490 564 33,000  Level Gander Center
Wed 03:54:14 PM 62.9500 -58.8500 277° West 480 552 33,000  Level Gander Center
Wed 03:55:14 PM 62.9667 -59.1333 285° West 480 552 33,000  Level Gander Center
Wed 03:56:14 PM 63.0000 -59.4167 276° West 480 552 33,000  Level Gander Center
Wed 03:57:14 PM 63.0167 -59.7500 270° West 490 564 33,000  Level Gander Center
Wed 03:58:14 PM 63.0167 -60.0500 278° West 480 552 33,000  Level Gander Center
Wed 03:59:14 PM 63.0333 -60.3000 270° West 480 552 33,000  Level Gander Center
Wed 04:00:14 PM 63.0333 -60.5833 263° West 480 552 33,000 750 Level Gander Center
Wed 04:01:14 PM 63.0167 -60.8833 270° West 490 564 34,500  Climbing Gander Center
Wed 04:02:14 PM 63.0167 -61.1333 277° West 490 564 33,000 -750 Descending Gander Center
Wed 04:03:14 PM 63.0333 -61.4333 264° West 480 552 33,000  Level Gander Center
Wed 04:04:14 PM 63.0167 -61.7500 276° West 480 552 33,000  Level Gander Center
Wed 04:05:14 PM 63.0333 -62.0833 270° West 480 552 33,000  Level Gander Center
Wed 04:06:14 PM 63.0333 -62.3833 270° West 480 552 33,000  Level Gander Center
Wed 04:07:14 PM 63.0333 -62.6667 270° West 480 552 33,000  Level Gander Center
Wed 04:08:14 PM 63.0333 -62.9667 254° West 480 552 33,000 500 Level Gander Center
Wed 04:09:14 PM 63.0000 -63.2167 278° West 480 552 34,000 500 Climbing Gander Center
Wed 04:10:14 PM 63.0167 -63.5000 270° West 480 552 34,000  Level Gander Center
Wed 04:11:34 PM 63.0167 -63.8500 278° West 480 552 34,000  Level Montreal Center
Wed 04:12:14 PM 63.0333 -64.1000 263° West 480 552 34,000  Level Gander Center
Wed 04:13:14 PM 63.0167 -64.3833 276° West 470 541 34,000  Level Gander Center
Wed 04:14:14 PM 63.0333 -64.7167 262° West 480 552 34,000  Level Gander Center
Wed 04:15:14 PM 63.0167 -64.9667 277° West 480 552 34,000  Level Gander Center
Wed 04:16:14 PM 63.0333 -65.2667 270° West 480 552 34,000  Level Gander Center
Wed 04:17:14 PM 63.0333 -65.5500 270° West 470 541 34,000  Level Gander Center
Wed 04:18:14 PM 63.0333 -65.8500 270° West 480 552 34,000  Level Gander Center
Wed 04:19:14 PM 63.0333 -66.1333 270° West 470 541 34,000  Level Gander Center
Wed 04:20:14 PM 63.0333 -66.4000 270° West 470 541 34,000  Level Gander Center
Wed 04:21:14 PM 63.0333 -66.6833 270° West 470 541 34,000  Level Gander Center
Wed 04:22:14 PM 63.0333 -67.0167 270° West 480 552 34,000  Level Gander Center
Wed 04:23:34 PM 63.0333 -67.3167 270° West 470 541 34,000  Level Montreal Center
Wed 04:24:34 PM 63.0333 -67.6000 270° West 470 541 34,000 600 Level Montreal Center
Wed 04:25:34 PM 63.0333 -67.9000 255° West 470 541 35,200 1,000 Climbing Montreal Center
Wed 04:26:34 PM 63.0000 -68.1667 270° West 470 541 36,000 400 Climbing Montreal Center
Wed 04:27:34 PM 63.0000 -68.4667 270° West 470 541 36,000  Level Montreal Center
Wed 04:28:34 PM 63.0000 -68.7667 270° West 470 541 36,000  Level Montreal Center
Wed 04:29:34 PM 63.0000 -69.0167 270° West 470 541 36,000  Level Montreal Center
Wed 04:30:34 PM 63.0000 -69.3500 263° West 480 552 36,000  Level Montreal Center
Wed 04:31:34 PM 62.9833 -69.6500 262° West 470 541 36,000  Level Montreal Center
Wed 04:32:34 PM 62.9667 -69.9167 270° West 470 541 36,000  Level Montreal Center
Wed 04:33:34 PM 62.9667 -70.2167 197° South 470 541 36,000  Level Montreal Center
Wed 04:34:19 PM 62.9167 -70.2500 264° West 480 552 36,000  Level Edmonton Center
Wed 04:35:19 PM 62.9000 -70.5667 262° West 470 541 36,000  Level Edmonton Center
Wed 04:36:19 PM 62.8833 -70.8167 263° West 470 541 36,000  Level Edmonton Center
Wed 04:37:19 PM 62.8667 -71.1000 270° West 470 541 36,000  Level Edmonton Center
Wed 04:38:19 PM 62.8667 -71.4000 263° West 480 552 36,000  Level Edmonton Center
Wed 04:39:19 PM 62.8500 -71.6833 270° West 470 541 36,000  Level Edmonton Center
Wed 04:40:19 PM 62.8500 -71.9667 264° West 470 541 36,000  Level Edmonton Center
Wed 04:41:19 PM 62.8333 -72.2833 262° West 480 552 36,000  Level Edmonton Center
Wed 04:42:19 PM 62.8167 -72.5500 262° West 470 541 36,000  Level Edmonton Center
Wed 04:43:19 PM 62.8000 -72.8000 264° West 460 529 36,000  Level Edmonton Center
Wed 04:44:19 PM 62.7833 -73.1167 270° West 460 529 36,000  Level Edmonton Center
Wed 04:45:19 PM 62.7833 -73.3833 255° West 470 541 36,000  Level Edmonton Center
Wed 04:46:19 PM 62.7500 -73.6500 270° West 470 541 36,000  Level Edmonton Center
Wed 04:47:19 PM 62.7500 -73.9500 256° West 470 541 36,000  Level Edmonton Center
Wed 04:48:19 PM 62.7167 -74.2333 270° West 470 541 36,000  Level Edmonton Center
Wed 04:49:19 PM 62.7167 -74.5167 262° West 470 541 36,000  Level Edmonton Center
Wed 04:50:19 PM 62.7000 -74.7833 256° West 460 529 36,000  Level Edmonton Center
Wed 04:51:19 PM 62.6667 -75.0667 263° West 460 529 36,000  Level Edmonton Center
Wed 04:52:19 PM 62.6500 -75.3500 263° West 460 529 36,000  Level Edmonton Center
Wed 04:53:19 PM 62.6333 -75.6333 262° West 460 529 36,000  Level Edmonton Center
Wed 04:54:19 PM 62.6167 -75.8833 263° West 460 529 36,000  Level Edmonton Center
Wed 04:55:19 PM 62.6000 -76.1833 255° West 460 529 36,000  Level Edmonton Center
Wed 04:56:19 PM 62.5667 -76.4500 262° West 470 541 36,000  Level Edmonton Center
Wed 04:57:19 PM 62.5500 -76.7167 263° West 460 529 36,000  Level Edmonton Center
Wed 04:58:19 PM 62.5333 -77.0000 256° West 460 529 36,000  Level Edmonton Center
Wed 04:59:19 PM 62.5000 -77.2833 262° West 460 529 36,000  Level Edmonton Center
Wed 05:00:19 PM 62.4833 -77.5333 263° West 460 529 36,000  Level Edmonton Center
Wed 05:01:19 PM 62.4667 -77.8333 255° West 460 529 36,000  Level Edmonton Center
Wed 05:02:19 PM 62.4333 -78.1000 262° West 460 529 36,000  Level Edmonton Center
Wed 05:03:19 PM 62.4167 -78.3500 257° West 460 529 36,000  Level Edmonton Center
Wed 05:04:19 PM 62.3833 -78.6667 262° West 460 529 36,000  Level Edmonton Center
Wed 05:05:19 PM 62.3667 -78.9167 263° West 460 529 36,000  Level Edmonton Center
Wed 05:06:19 PM 62.3500 -79.2000 248° West 460 529 36,000  Level Edmonton Center
Wed 05:07:19 PM 62.3000 -79.4667 262° West 460 529 36,000  Level Edmonton Center
Wed 05:08:19 PM 62.2833 -79.7333 254° West 460 529 36,000  Level Edmonton Center
Wed 05:09:19 PM 62.2500 -79.9833 255° West 460 529 36,000  Level Edmonton Center
Wed 05:10:19 PM 62.2167 -80.2500 254° West 460 529 36,000  Level Edmonton Center
Wed 05:11:19 PM 62.1833 -80.5000 257° West 460 529 36,000  Level Edmonton Center
Wed 05:12:19 PM 62.1500 -80.8000 262° West 460 529 36,000  Level Edmonton Center
Wed 05:13:19 PM 62.1333 -81.0500 248° West 460 529 36,000  Level Edmonton Center
Wed 05:14:19 PM 62.0833 -81.3167 263° West 460 529 36,000  Level Edmonton Center
Wed 05:15:19 PM 62.0667 -81.5833 247° West 460 529 36,000  Level Edmonton Center
Wed 05:16:19 PM 62.0167 -81.8333 254° West 460 529 36,000  Level Edmonton Center
Wed 05:17:19 PM 61.9833 -82.0833 257° West 460 529 36,000  Level Edmonton Center
Wed 05:18:19 PM 61.9500 -82.3833 254° West 460 529 36,000  Level Edmonton Center
Wed 05:19:19 PM 61.9167 -82.6333 248° West 460 529 36,000  Level Edmonton Center
Wed 05:20:19 PM 61.8667 -82.9000 262° West 460 529 36,000  Level Edmonton Center
Wed 05:21:19 PM 61.8500 -83.1500 247° West 460 529 36,000  Level Edmonton Center
Wed 05:22:19 PM 61.8000 -83.4000 254° West 460 529 36,000  Level Edmonton Center
Wed 05:23:19 PM 61.7667 -83.6500 249° West 450 518 36,000  Level Edmonton Center
Wed 05:24:19 PM 61.7167 -83.9167 254° West 450 518 36,000  Level Edmonton Center
Wed 05:25:19 PM 61.6833 -84.1667 263° West 450 518 36,000  Level Edmonton Center
Wed 05:26:19 PM 61.6667 -84.4333 249° West 450 518 36,000  Level Edmonton Center
Wed 05:27:19 PM 61.6167 -84.7000 254° West 450 518 36,000  Level Edmonton Center
Wed 05:28:19 PM 61.5833 -84.9500 247° West 450 518 36,000  Level Edmonton Center
Wed 05:29:19 PM 61.5333 -85.2000 247° West 450 518 36,000  Level Edmonton Center
Wed 05:30:19 PM 61.4833 -85.4500 247° West 450 518 36,000  Level Edmonton Center
Wed 05:31:19 PM 61.4333 -85.7000 253° West 450 518 36,000  Level Edmonton Center
Wed 05:32:19 PM 61.4000 -85.9333 255° West 450 518 36,000  Level Edmonton Center
Wed 05:33:19 PM 61.3667 -86.1833 247° West 450 518 36,000  Level Edmonton Center
Wed 05:34:19 PM 61.3167 -86.4333 255° West 450 518 36,000  Level Edmonton Center
Wed 05:35:19 PM 61.2833 -86.6833 248° West 450 518 36,000  Level Edmonton Center
Wed 05:36:19 PM 61.2333 -86.9333 246° West 450 518 36,000  Level Edmonton Center
Wed 05:37:19 PM 61.1833 -87.1667 254° West 450 518 36,000  Level Edmonton Center
Wed 05:38:19 PM 61.1500 -87.4000 248° West 450 518 36,000  Level Edmonton Center
Wed 05:39:19 PM 61.1000 -87.6500 256° West 450 518 36,000  Level Edmonton Center
Wed 05:40:19 PM 61.0667 -87.9333 240° Southwest 450 518 36,000  Level Edmonton Center
Wed 05:41:19 PM 61.0000 -88.1667 255° West 450 518 36,000  Level Edmonton Center
Wed 05:42:19 PM 60.9667 -88.4167 246° West 450 518 36,000  Level Edmonton Center
Wed 05:43:19 PM 60.9167 -88.6500 246° West 450 518 36,000  Level Edmonton Center
Wed 05:44:19 PM 60.8667 -88.8833 255° West 450 518 36,000  Level Edmonton Center
Wed 05:45:19 PM 60.8333 -89.1333 240° Southwest 450 518 36,000  Level Edmonton Center
Wed 05:46:19 PM 60.7667 -89.3667 254° West 450 518 36,000  Level Edmonton Center
Wed 05:47:19 PM 60.7333 -89.6000 242° Southwest 450 518 36,000  Level Edmonton Center
Wed 05:48:19 PM 60.6667 -89.8500 254° West 450 518 36,000  Level Edmonton Center
Wed 05:49:19 PM 60.6333 -90.0833 240° Southwest 450 518 36,000  Level Edmonton Center
Wed 05:50:19 PM 60.5667 -90.3167 247° West 450 518 36,000  Level Edmonton Center
Wed 05:51:19 PM 60.5167 -90.5500 254° West 450 518 36,000  Level Edmonton Center
Wed 05:52:19 PM 60.4833 -90.7833 240° Southwest 450 518 36,000  Level Edmonton Center
Wed 05:53:19 PM 60.4167 -91.0167 249° West 450 518 36,000  Level Edmonton Center
Wed 05:54:19 PM 60.3667 -91.2833 247° West 450 518 36,000  Level Edmonton Center
Wed 05:55:19 PM 60.3167 -91.5167 247° West 450 518 36,000  Level Edmonton Center
Wed 05:56:19 PM 60.2667 -91.7500 240° Southwest 450 518 36,000  Level Edmonton Center
Wed 05:57:19 PM 60.2000 -91.9833 245° Southwest 460 529 36,000  Level Edmonton Center
Wed 05:58:19 PM 60.1500 -92.2000 254° West 450 518 36,000  Level Edmonton Center
Wed 05:59:19 PM 60.1167 -92.4333 240° Southwest 460 529 36,000  Level Edmonton Center
Wed 06:00:19 PM 60.0500 -92.6667 248° West 460 529 36,000  Level Edmonton Center
Wed 06:01:19 PM 60.0000 -92.9167 236° Southwest 460 529 36,000  Level Edmonton Center
Wed 06:02:19 PM 59.9333 -93.1167 235° Southwest 450 518 36,000  Level Edmonton Center
Wed 06:03:19 PM 59.8500 -93.3500 237° Southwest 450 518 36,000  Level Edmonton Center
Wed 06:04:19 PM 59.7833 -93.5500 234° Southwest 450 518 36,000  Level Edmonton Center
Wed 06:05:19 PM 59.7167 -93.7333 241° Southwest 450 518 36,000  Level Edmonton Center
Wed 06:06:19 PM 59.6500 -93.9667 235° Southwest 450 518 36,000  Level Edmonton Center
Wed 06:07:19 PM 59.5667 -94.2000 234° Southwest 450 518 36,000  Level Edmonton Center
Wed 06:08:19 PM 59.5000 -94.3833 241° Southwest 460 529 36,000  Level Edmonton Center
Wed 06:09:19 PM 59.4333 -94.6167 228° Southwest 450 518 36,000  Level Edmonton Center
Wed 06:10:19 PM 59.3500 -94.8000 235° Southwest 460 529 36,000  Level Edmonton Center
Wed 06:11:19 PM 59.2667 -95.0333 235° Southwest 460 529 36,000  Level Edmonton Center
Wed 06:12:19 PM 59.2000 -95.2167 239° Southwest 450 518 36,000  Level Edmonton Center
Wed 06:13:19 PM 59.1333 -95.4333 237° Southwest 450 518 36,000  Level Edmonton Center
Wed 06:14:19 PM 59.0667 -95.6333 233° Southwest 450 518 36,000  Level Edmonton Center
Wed 06:15:19 PM 58.9833 -95.8500 235° Southwest 450 518 36,000  Level Edmonton Center
Wed 06:16:19 PM 58.9167 -96.0333 233° Southwest 450 518 36,000  Level Edmonton Center
Wed 06:17:19 PM 58.8333 -96.2500 229° Southwest 450 518 36,000  Level Edmonton Center
Wed 06:18:19 PM 58.7500 -96.4333 239° Southwest 450 518 36,000  Level Edmonton Center
Wed 06:19:19 PM 58.6833 -96.6500 235° Southwest 450 518 36,000  Level Edmonton Center
Wed 06:20:19 PM 58.6167 -96.8333 234° Southwest 450 518 36,000  Level Edmonton Center
Wed 06:21:19 PM 58.5333 -97.0500 233° Southwest 450 518 36,000  Level Edmonton Center
Wed 06:22:19 PM 58.4667 -97.2167 234° Southwest 450 518 36,000  Level Edmonton Center
Wed 06:23:19 PM 58.3833 -97.4333 229° Southwest 450 518 36,000  Level Edmonton Center
Wed 06:24:19 PM 58.3000 -97.6167 240° Southwest 450 518 36,000  Level Edmonton Center
Wed 06:25:19 PM 58.2333 -97.8333 227° Southwest 460 529 36,000  Level Edmonton Center
Wed 06:26:19 PM 58.1500 -98.0000 240° Southwest 460 529 36,000  Level Edmonton Center
Wed 06:27:19 PM 58.0833 -98.2167 221° Southwest 450 518 36,000  Level Edmonton Center
Wed 06:28:19 PM 57.9833 -98.3833 240° Southwest 450 518 36,000  Level Edmonton Center
Wed 06:29:19 PM 57.9167 -98.6000 227° Southwest 450 518 36,000  Level Edmonton Center
Wed 06:30:19 PM 57.8333 -98.7667 238° Southwest 450 518 36,000  Level Edmonton Center
Wed 06:31:19 PM 57.7667 -98.9667 230° Southwest 450 518 36,000  Level Edmonton Center
Wed 06:32:19 PM 57.6833 -99.1500 227° Southwest 450 518 36,000  Level Edmonton Center
Wed 06:33:19 PM 57.5833 -99.3500 233° Southwest 450 518 36,000  Level Edmonton Center
Wed 06:34:19 PM 57.5167 -99.5167 232° Southwest 450 518 36,000  Level Edmonton Center
Wed 06:35:19 PM 57.4333 -99.7167 236° Southwest 450 518 36,000  Level Edmonton Center
Wed 06:36:19 PM 57.3667 -99.9000 232° Southwest 450 518 36,000  Level Edmonton Center
Wed 06:37:19 PM 57.2833 -100.1000 227° Southwest 450 518 36,000  Level Edmonton Center
Wed 06:38:19 PM 57.2000 -100.2667 233° Southwest 450 518 36,000  Level Edmonton Center
Wed 06:39:19 PM 57.1167 -100.4667 227° Southwest 450 518 36,000  Level Edmonton Center
Wed 06:40:19 PM 57.0333 -100.6333 230° Southwest 460 529 36,000  Level Edmonton Center
Wed 06:41:19 PM 56.9500 -100.8167 228° Southwest 450 518 36,000  Level Edmonton Center
Wed 06:42:19 PM 56.8667 -100.9833 239° Southwest 450 518 36,000  Level Edmonton Center
Wed 06:43:19 PM 56.8000 -101.1833 228° Southwest 460 529 36,000  Level Edmonton Center
Wed 06:44:19 PM 56.7167 -101.3500 223° Southwest 450 518 36,000  Level Edmonton Center
Wed 06:45:19 PM 56.6167 -101.5167 231° Southwest 450 518 36,000  Level Edmonton Center
Wed 06:46:19 PM 56.5333 -101.7000 228° Southwest 450 518 36,000  Level Edmonton Center
Wed 06:47:19 PM 56.4500 -101.8667 237° Southwest 460 529 36,000  Level Edmonton Center
Wed 06:48:19 PM 56.3833 -102.0500 228° Southwest 460 529 36,000  Level Edmonton Center
Wed 06:49:19 PM 56.2833 -102.2500 225° Southwest 460 529 36,000  Level Edmonton Center
Wed 06:50:19 PM 56.2000 -102.4000 223° Southwest 460 529 36,000  Level Edmonton Center
Wed 06:51:19 PM 56.1000 -102.5667 225° Southwest 460 529 36,000  Level Edmonton Center
Wed 06:52:19 PM 56.0167 -102.7167 220° Southwest 460 529 36,000  Level Edmonton Center
Wed 06:53:19 PM 55.9167 -102.8667 219° Southwest 460 529 36,000  Level Edmonton Center
Wed 06:54:19 PM 55.8000 -103.0333 233° Southwest 460 529 36,000  Level Edmonton Center
Wed 06:55:35 PM 55.7000 -103.2667 217° Southwest 470 541 36,000  Level Winnipeg Center
Wed 06:56:35 PM 55.6000 -103.4000 229° Southwest 460 529 36,000  Level Winnipeg Center
Wed 06:57:35 PM 55.5167 -103.5667 210° Southwest 460 529 36,000  Level Winnipeg Center
Wed 06:58:35 PM 55.4000 -103.6833 229° Southwest 460 529 36,000  Level Winnipeg Center
Wed 06:59:35 PM 55.3167 -103.8500 217° Southwest 460 529 36,000  Level Winnipeg Center
Wed 07:00:35 PM 55.2167 -103.9833 217° Southwest 460 529 36,000  Level Winnipeg Center
Wed 07:01:35 PM 55.1167 -104.1167 221° Southwest 460 529 36,000  Level Winnipeg Center
Wed 07:02:35 PM 55.0167 -104.2667 223° Southwest 460 529 36,000  Level Winnipeg Center
Wed 07:03:35 PM 54.9333 -104.4000 201° Southwest 460 529 36,000  Level Winnipeg Center
Wed 07:04:19 PM 54.8333 -104.4667 221° Southwest 450 518 36,000  Level Edmonton Center
Wed 07:05:19 PM 54.7333 -104.6167 218° Southwest 450 518 36,000  Level Edmonton Center
Wed 07:06:19 PM 54.6333 -104.7500 221° Southwest 450 518 36,000  Level Edmonton Center
Wed 07:07:19 PM 54.5333 -104.9000 214° Southwest 450 518 36,000  Level Edmonton Center
Wed 07:08:19 PM 54.4333 -105.0167 226° Southwest 450 518 36,000 250 Level Edmonton Center
Wed 07:09:19 PM 54.3500 -105.1667 221° Southwest 450 518 36,500 900 Climbing Edmonton Center
Wed 07:10:19 PM 54.2500 -105.3167 221° Southwest 450 518 37,800 662 Climbing Edmonton Center
Wed 07:11:35 PM 54.1167 -105.5167 214° Southwest 460 529 38,000 88 Climbing Winnipeg Center
Wed 07:12:35 PM 54.0167 -105.6333 230° Southwest 460 529 38,000  Level Winnipeg Center
Wed 07:13:35 PM 53.9333 -105.8000 211° Southwest 460 529 38,000  Level Winnipeg Center
Wed 07:14:35 PM 53.8167 -105.9167 222° Southwest 460 529 38,000  Level Winnipeg Center
Wed 07:15:35 PM 53.7167 -106.0667 215° Southwest 460 529 38,000  Level Winnipeg Center
Wed 07:16:35 PM 53.6167 -106.1833 222° Southwest 460 529 38,000  Level Winnipeg Center
Wed 07:17:35 PM 53.5167 -106.3333 215° Southwest 460 529 38,000  Level Winnipeg Center
Wed 07:18:35 PM 53.4167 -106.4500 222° Southwest 460 529 38,000  Level Winnipeg Center
Wed 07:19:35 PM 53.3167 -106.6000 215° Southwest 470 541 38,000  Level Winnipeg Center
Wed 07:20:35 PM 53.2167 -106.7167 214° Southwest 470 541 38,000  Level Winnipeg Center
Wed 07:21:35 PM 53.1000 -106.8500 224° Southwest 470 541 38,000  Level Winnipeg Center
Wed 07:22:35 PM 53.0167 -106.9833 215° Southwest 470 541 38,000  Level Winnipeg Center
Wed 07:23:35 PM 52.9000 -107.1167 215° Southwest 470 541 38,000  Level Winnipeg Center
Wed 07:24:35 PM 52.8000 -107.2333 215° Southwest 460 529 38,000  Level Winnipeg Center
Wed 07:25:35 PM 52.6833 -107.3667 220° Southwest 460 529 38,000  Level Winnipeg Center
Wed 07:26:35 PM 52.6000 -107.4833 218° Southwest 460 529 38,000  Level Winnipeg Center
Wed 07:27:35 PM 52.4833 -107.6333 215° Southwest 460 529 38,000  Level Winnipeg Center
Wed 07:28:35 PM 52.3833 -107.7500 206° Southwest 460 529 38,000  Level Winnipeg Center
Wed 07:29:19 PM 52.3000 -107.8167 216° Southwest 460 529 38,000  Level Edmonton Center
Wed 07:30:19 PM 52.2000 -107.9333 215° Southwest 460 529 38,000  Level Edmonton Center
Wed 07:31:19 PM 52.0833 -108.0667 212° Southwest 460 529 38,000  Level Edmonton Center
Wed 07:32:19 PM 51.9833 -108.1667 226° Southwest 460 529 38,000  Level Edmonton Center
Wed 07:33:19 PM 51.8833 -108.3333 208° Southwest 460 529 38,000  Level Edmonton Center
Wed 07:34:19 PM 51.7667 -108.4333 220° Southwest 460 529 38,000  Level Edmonton Center
Wed 07:35:19 PM 51.6667 -108.5667 216° Southwest 460 529 38,000  Level Edmonton Center
Wed 07:36:19 PM 51.5667 -108.6833 215° Southwest 460 529 38,000  Level Edmonton Center
Wed 07:37:19 PM 51.4500 -108.8167 216° Southwest 460 529 38,000  Level Edmonton Center
Wed 07:38:19 PM 51.3500 -108.9333 212° Southwest 460 529 38,000  Level Edmonton Center
Wed 07:39:19 PM 51.2500 -109.0333 219° Southwest 460 529 38,000  Level Edmonton Center
Wed 07:40:19 PM 51.1333 -109.1833 212° Southwest 460 529 38,000  Level Edmonton Center
Wed 07:41:19 PM 51.0333 -109.2833 220° Southwest 460 529 38,000  Level Edmonton Center
Wed 07:42:19 PM 50.9333 -109.4167 212° Southwest 460 529 38,000  Level Edmonton Center
Wed 07:43:19 PM 50.8167 -109.5333 216° Southwest 460 529 38,000  Level Edmonton Center
Wed 07:44:19 PM 50.7167 -109.6500 222° Southwest 460 529 38,000  Level Edmonton Center
Wed 07:45:35 PM 50.6000 -109.8167 216° Southwest 470 541 38,000  Level Winnipeg Center
Wed 07:46:35 PM 50.4833 -109.9500 194° South 470 541 38,000  Level Winnipeg Center
Wed 07:47:19 PM 50.4000 -109.9833 216° Southwest 460 529 38,000  Level Edmonton Center
Wed 07:48:19 PM 50.2833 -110.1167 217° Southwest 460 529 38,000  Level Edmonton Center
Wed 07:49:19 PM 50.1833 -110.2333 217° Southwest 460 529 38,000  Level Edmonton Center
Wed 07:50:19 PM 50.0833 -110.3500 217° Southwest 460 529 38,000  Level Edmonton Center
Wed 07:51:19 PM 49.9833 -110.4667 213° Southwest 460 529 38,000  Level Edmonton Center
Wed 07:52:19 PM 49.8667 -110.5833 213° Southwest 460 529 38,000  Level Edmonton Center
Wed 07:53:19 PM 49.7667 -110.6833 213° Southwest 460 529 38,000  Level Edmonton Center
Wed 07:54:19 PM 49.6500 -110.8000 217° Southwest 460 529 38,000  Level Edmonton Center
Wed 07:55:19 PM 49.5500 -110.9167 213° Southwest 460 529 38,000  Level Edmonton Center
Wed 07:56:19 PM 49.4333 -111.0333 222° Southwest 460 529 38,000  Level Edmonton Center
Wed 07:57:19 PM 49.3500 -111.1500 209° Southwest 460 529 38,000  Level Edmonton Center
Wed 07:58:19 PM 49.2333 -111.2500 217° Southwest 460 529 38,000  Level Edmonton Center
Wed 07:59:19 PM 49.1333 -111.3667 209° Southwest 460 529 38,000  Level Edmonton Center
Wed 08:00:19 PM 49.0167 -111.4667 213° Southwest 460 529 38,000  Level Edmonton Center
Wed 08:01:19 PM 48.9167 -111.5667 213° Southwest 460 529 38,000  Level Edmonton Center
Wed 08:02:19 PM 48.8000 -111.6833 218° Southwest 460 529 38,000  Level Edmonton Center
Wed 08:03:19 PM 48.7000 -111.8000 213° Southwest 460 529 38,000  Level Edmonton Center
Wed 08:04:19 PM 48.5833 -111.9167 214° Southwest 460 529 38,000  Level Edmonton Center
Wed 08:05:19 PM 48.4833 -112.0167 205° Southwest 460 529 38,000  Level Edmonton Center
Wed 08:06:19 PM 48.3667 -112.1000 218° Southwest 460 529 38,000  Level Edmonton Center
Wed 08:07:19 PM 48.2667 -112.2167 214° Southwest 460 529 38,000  Level Edmonton Center
Wed 08:08:19 PM 48.1500 -112.3333 219° Southwest 460 529 38,000  Level Edmonton Center
Wed 08:09:19 PM 48.0667 -112.4333 210° Southwest 460 529 38,000  Level Edmonton Center
Wed 08:10:19 PM 47.9333 -112.5500 214° Southwest 450 518 38,000  Level Edmonton Center
Wed 08:11:19 PM 47.8500 -112.6333 210° Southwest 450 518 38,000  Level Edmonton Center
Wed 08:12:19 PM 47.7333 -112.7333 218° Southwest 450 518 38,000  Level Edmonton Center
Wed 08:13:19 PM 47.6333 -112.8500 210° Southwest 460 529 38,000  Level Edmonton Center
Wed 08:14:19 PM 47.5167 -112.9500 229° Southwest 460 529 38,000  Level Edmonton Center
Wed 08:14:49 PM 47.5003 -112.9783 212° Southwest 457 526 38,000  Level Salt Lake Center
Wed 08:15:51 PM 47.3917 -113.0794 213° Southwest 458 527 38,000  Level Salt Lake Center
Wed 08:16:53 PM 47.2844 -113.1806 213° Southwest 457 526 38,000 -48 Level Salt Lake Center
Wed 08:17:55 PM 47.1775 -113.2808 213° Southwest 457 526 37,900  Descending Salt Lake Center
Wed 08:18:57 PM 47.0706 -113.3814 213° Southwest 457 526 38,000 49 Climbing Salt Lake Center
Wed 08:19:58 PM 46.9628 -113.4822 212° Southwest 458 527 38,000  Level Salt Lake Center
Wed 08:21:00 PM 46.8539 -113.5825 212° Southwest 461 531 38,000  Level Salt Lake Center
Wed 08:22:02 PM 46.7236 -113.7025 212° Southwest 461 531 38,000  Level Salt Lake Center
Wed 08:23:04 PM 46.6167 -113.8003 212° Southwest 457 526 38,000  Level Salt Lake Center
Wed 08:24:05 PM 46.5092 -113.8983 212° Southwest 456 525 38,000  Level Salt Lake Center
Wed 08:25:07 PM 46.4017 -113.9944 212° Southwest 455 524 38,000  Level Salt Lake Center
Wed 08:26:09 PM 46.2939 -114.0903 212° Southwest 455 524 38,000  Level Salt Lake Center
Wed 08:27:11 PM 46.1864 -114.1861 212° Southwest 454 522 38,000  Level Salt Lake Center
Wed 08:28:12 PM 46.0800 -114.2803 212° Southwest 451 519 38,000  Level Salt Lake Center
Wed 08:29:14 PM 45.9733 -114.3758 211° Southwest 451 519 38,000  Level Salt Lake Center
Wed 08:30:16 PM 45.8519 -114.4822 211° Southwest 451 519 38,000  Level Salt Lake Center
Wed 08:31:18 PM 45.7311 -114.5878 211° Southwest 454 522 38,000  Level Salt Lake Center
Wed 08:32:19 PM 45.6272 -114.6786 212° Southwest 456 525 38,000  Level Salt Lake Center
Wed 08:33:21 PM 45.5072 -114.7844 211° Southwest 455 524 38,000  Level Salt Lake Center
Wed 08:34:23 PM 45.4050 -114.8736 211° Southwest 452 520 38,000  Level Salt Lake Center
Wed 08:35:25 PM 45.3025 -114.9614 211° Southwest 450 518 38,000  Level Salt Lake Center
Wed 08:36:27 PM 45.1828 -115.0625 211° Southwest 448 516 38,000  Level Salt Lake Center
Wed 08:37:28 PM 45.0808 -115.1506 211° Southwest 448 516 38,000  Level Salt Lake Center
Wed 08:38:30 PM 44.9625 -115.2519 211° Southwest 446 513 38,000  Level Salt Lake Center
Wed 08:39:32 PM 44.8608 -115.3383 211° Southwest 445 512 38,000  Level Salt Lake Center
Wed 08:40:34 PM 44.7431 -115.4381 211° Southwest 442 509 38,000  Level Salt Lake Center
Wed 08:41:36 PM 44.6433 -115.5236 211° Southwest 440 506 38,000  Level Salt Lake Center
Wed 08:42:37 PM 44.5425 -115.6075 210° Southwest 439 505 38,000  Level Salt Lake Center
Wed 08:43:39 PM 44.4228 -115.7061 210° Southwest 441 507 38,000  Level Salt Lake Center
Wed 08:44:41 PM 44.3211 -115.7894 210° Southwest 440 506 38,000  Level Salt Lake Center
Wed 08:45:43 PM 44.2031 -115.8864 211° Southwest 437 503 38,000  Level Salt Lake Center
Wed 08:46:45 PM 44.1000 -115.9719 211° Southwest 443 510 38,000  Level Salt Lake Center
Wed 08:47:46 PM 43.9978 -116.0561 210° Southwest 444 511 38,000  Level Salt Lake Center
Wed 08:48:48 PM 43.8800 -116.1519 210° Southwest 439 505 38,000  Level Salt Lake Center
Wed 08:49:50 PM 43.7789 -116.2342 210° Southwest 438 504 38,000  Level Salt Lake Center
Wed 08:50:52 PM 43.6617 -116.3283 210° Southwest 436 502 38,000  Level Salt Lake Center
Wed 08:51:54 PM 43.5611 -116.4081 210° Southwest 435 501 38,000  Level Salt Lake Center
Wed 08:52:55 PM 43.4447 -116.5022 210° Southwest 435 501 38,000  Level Salt Lake Center
Wed 08:53:57 PM 43.3433 -116.5817 210° Southwest 436 502 38,000  Level Salt Lake Center
Wed 08:54:59 PM 43.2422 -116.6617 210° Southwest 438 504 38,000  Level Salt Lake Center
Wed 08:56:01 PM 43.1222 -116.7572 210° Southwest 445 512 38,000  Level Salt Lake Center
Wed 08:57:03 PM 43.0186 -116.8381 210° Southwest 446 513 38,000  Level Salt Lake Center
Wed 08:58:04 PM 42.8983 -116.9322 210° Southwest 447 514 38,000  Level Salt Lake Center
Wed 08:59:06 PM 42.7961 -117.0119 210° Southwest 443 510 38,000  Level Salt Lake Center
Wed 09:00:08 PM 42.6769 -117.1044 209° Southwest 442 509 38,000  Level Salt Lake Center
Wed 09:01:09 PM 42.5739 -117.1833 210° Southwest 443 510 38,000  Level Salt Lake Center
Wed 09:02:11 PM 42.4703 -117.2642 210° Southwest 448 516 38,000  Level Salt Lake Center
Wed 09:03:13 PM 42.3497 -117.3575 210° Southwest 447 514 38,000  Level Salt Lake Center
Wed 09:04:15 PM 42.2367 -117.4444 209° Southwest 448 516 38,000  Level Salt Lake Center
Wed 09:05:16 PM 42.1322 -117.5231 209° Southwest 448 516 38,000  Level Salt Lake Center
Wed 09:06:18 PM 42.0272 -117.6022 209° Southwest 451 519 38,000  Level Salt Lake Center
Wed 09:07:20 PM 41.9031 -117.6961 210° Southwest 456 525 38,000  Level Salt Lake Center
Wed 09:08:21 PM 41.7986 -117.7761 209° Southwest 454 522 38,000  Level Salt Lake Center
Wed 09:09:23 PM 41.6753 -117.8694 209° Southwest 455 524 38,000  Level Salt Lake Center
Wed 09:10:25 PM 41.5689 -117.9494 204° Southwest 458 527 38,000  Level Salt Lake Center
Wed 09:11:26 PM 41.4372 -118.0281 198° South 465 535 38,000  Level Salt Lake Center
Wed 09:12:28 PM 41.3156 -118.0792 197° South 480 552 38,000  Level Salt Lake Center
Wed 09:13:29 PM 41.1953 -118.1294 198° South 477 549 38,000  Level Salt Lake Center
Wed 09:14:31 PM 41.0536 -118.1897 198° South 478 550 38,000  Level Salt Lake Center
Wed 09:15:33 PM 40.9306 -118.2425 198° South 482 555 38,000  Level Salt Lake Center
Wed 09:16:34 PM 40.7875 -118.3022 198° South 484 557 38,000  Level Salt Lake Center
Wed 09:17:36 PM 40.6633 -118.3539 197° South 487 560 38,000  Level Salt Lake Center
Wed 09:18:37 PM 40.5175 -118.4128 193° South 491 565 38,000  Level Salt Lake Center
Wed 09:19:39 PM 40.3892 -118.4511 192° South 494 568 38,000  Level Salt Lake Center
Wed 09:20:41 PM 40.2361 -118.4922 192° South 500 575 38,000  Level Salt Lake Center
Wed 09:21:42 PM 40.1056 -118.5289 191° South 501 577 38,000  Level Salt Lake Center
Wed 09:22:44 PM 39.9814 -118.5617 192° South 499 574 38,000  Level Salt Lake Center
Wed 09:23:45 PM 39.8178 -118.6081 192° South 500 575 38,000  Level Salt Lake Center
Wed 09:24:47 PM 39.6808 -118.6456 192° South 501 577 38,000  Level Salt Lake Center
Wed 09:25:48 PM 39.5433 -118.6833 192° South 504 580 38,000  Level Salt Lake Center
Wed 09:26:50 PM 39.4064 -118.7211 192° South 508 585 38,000  Level Salt Lake Center
Wed 09:28:08 PM 39.2147 -118.7731 193° South 509 586 38,000  Level Oakland Center
Wed 09:29:08 PM 39.0903 -118.8089 191° South 519 597 38,000  Level Oakland Center
Wed 09:30:09 PM 38.9511 -118.8425 193° South 519 597 38,000  Level Oakland Center
Wed 09:31:08 PM 38.8183 -118.8811 192° South 509 586 38,000  Level Oakland Center
Wed 09:32:08 PM 38.6814 -118.9169 192° South 504 580 38,000  Level Oakland Center
Wed 09:33:08 PM 38.5444 -118.9528 192° South 509 586 38,000  Level Oakland Center
Wed 09:34:09 PM 38.4094 -118.9883 192° South 509 586 38,000 -300 Level Oakland Center
Wed 09:35:08 PM 38.2744 -119.0239 192° South 509 586 37,400 -504 Descending Oakland Center
Wed 09:36:08 PM 38.1250 -119.0647 193° South 504 580 37,000 -200 Descending Oakland Center
Wed 09:37:08 PM 37.9961 -119.1022 189° South 497 572 37,000  Level Oakland Center
Wed 09:38:08 PM 37.8631 -119.1294 191° South 492 566 37,000  Level Oakland Center
Wed 09:39:08 PM 37.7281 -119.1642 192° South 492 566 37,000  Level Oakland Center
Wed 09:40:08 PM 37.6139 -119.1958 193° South 497 572 37,000  Level Oakland Center
Wed 09:41:08 PM 37.4600 -119.2414 192° South 519 597 37,000  Level Oakland Center
Wed 09:42:09 PM 37.3189 -119.2786 193° South 524 603 37,000  Level Oakland Center
Wed 09:43:08 PM 37.1775 -119.3183 191° South 524 603 37,000  Level Oakland Center
Wed 09:44:08 PM 37.0342 -119.3528 191° South 524 603 37,000  Level Oakland Center
Wed 09:45:08 PM 36.8906 -119.3869 192° South 524 603 37,000  Level Oakland Center
Wed 09:46:08 PM 36.7472 -119.4236 191° South 524 603 37,000  Level Oakland Center
Wed 09:47:08 PM 36.6036 -119.4575 193° South 524 603 37,000  Level Oakland Center
Wed 09:48:08 PM 36.4644 -119.4964 192° South 524 603 37,000  Level Oakland Center
Wed 09:49:08 PM 36.3208 -119.5328 191° South 524 603 37,000  Level Oakland Center
Wed 09:51:18 PM 36.0119 -119.6078 184° South 545 627 37,000  Level Los Angeles Center
Wed 09:52:18 PM 35.8656 -119.6194 182° South 540 621 37,000  Level Los Angeles Center
Wed 09:53:18 PM 35.7192 -119.6258 180° South 540 621 37,000 -850 Level Los Angeles Center
Wed 09:54:18 PM 35.5692 -119.6247 171° South 540 621 35,300 -1,850 Descending Los Angeles Center
Wed 09:55:18 PM 35.4258 -119.5956 168° South 531 611 33,300 -2,000 Descending Los Angeles Center
Wed 09:56:18 PM 35.2872 -119.5592 155° Southeast 526 605 31,300 -1,850 Descending Los Angeles Center
Wed 09:57:18 PM 35.1639 -119.4878 148° Southeast 503 579 29,600 -1,750 Descending Los Angeles Center
Wed 09:58:18 PM 35.0392 -119.3939 147° Southeast 488 562 27,800 -1,750 Descending Los Angeles Center
Wed 09:59:18 PM 34.9328 -119.3111 150° Southeast 474 545 26,100 -1,700 Descending Los Angeles Center
Wed 10:00:18 PM 34.8283 -119.2364 148° Southeast 456 525 24,400 -1,550 Descending Los Angeles Center
Wed 10:01:18 PM 34.7281 -119.1592 151° Southeast 435 501 23,000 -1,450 Descending Los Angeles Center
Wed 10:02:18 PM 34.6378 -119.0978 148° Southeast 422 486 21,500 -1,650 Descending Los Angeles Center
Wed 10:03:18 PM 34.5456 -119.0289 148° Southeast 404 465 19,700 -2,150 Descending Los Angeles Center
Wed 10:04:18 PM 34.4572 -118.9631 149° Southeast 392 451 17,200 -2,100 Descending Los Angeles Center
Wed 10:05:18 PM 34.3711 -118.8997 160° South 380 437 15,500 -1,650 Descending Los Angeles Center
Wed 10:06:18 PM 34.2742 -118.8561 163° South 367 422 13,900 -1,650 Descending Los Angeles Center
Wed 10:07:18 PM 34.1706 -118.8178 162° South 361 415 12,200 -1,400 Descending Los Angeles Center
Wed 10:08:18 PM 34.0817 -118.7822 117° Southeast 348 400 11,100 -1,050 Descending Los Angeles Center
Wed 10:09:18 PM 34.0419 -118.6883 100° East 305 351 10,100 -1,000 Descending Los Angeles Center
Wed 10:10:18 PM 34.0272 -118.5875 99° East 285 328 9,100 -950 Descending Los Angeles Center
Wed 10:11:18 PM 34.0144 -118.4919 90° East 285 328 8,200 -800 Descending Los Angeles Center
Wed 10:12:18 PM 34.0142 -118.4067 88° East 285 328 7,500 -1,289 Descending Los Angeles Center
Wed 10:13:19 PM 34.0167 -118.3000 73° East 260 299 5,600 -1,377 Descending Southern California TRACON
Wed 10:14:20 PM 34.0333 -118.2333 90° East 191 220 4,700 -942 Descending Southern California TRACON
Wed 10:15:20 PM 34.0333 -118.1667 90° East 178 205 3,700 -1,053 Descending Southern California TRACON
Wed 10:16:14 PM 34.0333 -118.1167 180° South 180 207 2,700 -579 Descending Southern California TRACON
Wed 10:17:14 PM 34.0000 -118.1167 248° West 180 207 2,600 -53 Descending Southern California TRACON
Wed 10:18:08 PM 33.9833 -118.1667 253° West 179 206 2,600  Level Southern California TRACON
Wed 10:19:14 PM 33.9667 -118.2333 270° West 180 207 2,600 -333 Level Southern California TRACON
Wed 10:20:14 PM 33.9667 -118.2833 253° West 175 201 1,900 -750 Descending Southern California TRACON
Wed 10:21:14 PM 33.9500 -118.3500 253° West 150 173 1,100 -800 Descending Southern California TRACON

Login

Don't have an account? Register now (free) for customized features, flight alerts, and more!